Main page
METAR-TAF:

METAR-TAF

Airports :

St. Paul Downtown Airport

Saint Paul, Minnesota, United States

latitude: 44-55-49N, longitude: 093-02-53W, elevation: 702 ft

Current weather observation

The report was made 1 hour and 12 minutes ago, at 07:53 UTC
Calm wind
Temperature 25°F
Humidity 74%
Pressure 30.04 in. Hg
Visibility: 10 miles
Few clouds at a height of 10000 ft

METAR: KSTP 020753Z AUTO 00000KT 10SM FEW100 M04/M08 A3004 RMK AO2 SLP178 T10441083

Time: 03:05 (09:05 UTC)


TAF: missing

Weather observations and forecasts of more than 4000 airports (METAR and TAF reports).

The available stations are represented by yellow and red dots on the map.

Hover mouse over dot to see the name of the station.

Then click to see weather observations and forecasts.

To change the map : click on the green buttons with a black cross to zoom in, on the green button with a dash to zoom out, or on the green arrows for adjacent maps.


METAR-TAF: